Time;durP1;ratioP1;P1;durP2;ratioP2;P2;SDS_P1;SDS_P2;PMS_P1;PMS_P2;Temp;Humidity;BMP_temperature;BMP_pressure;BME280_temperature;BME280_humidity;BME280_pressure;Samples;Min_cycle;Max_cycle;Signal;HPM_P1;HPM_P2
2022/03/11 06:10:26;;;;;;;15.90;8.65;;;;;;;-3.01;48.09;102179.97;6499871;27;20093;-87
2022/03/11 06:13:29;;;;;;;18.40;8.90;;;;;;;-2.71;47.62;102185.22;6497643;27;34783;-86
2022/03/11 06:16:33;;;;;;;18.33;9.93;;;;;;;-2.36;47.04;102185.87;6505810;27;34362;-86
2022/03/11 06:19:36;;;;;;;13.00;9.20;;;;;;;-2.06;45.32;102186.59;6499294;27;33891;-86
2022/03/11 06:22:51;;;;;;;16.42;9.70;;;;;;;-1.75;44.69;102186.41;6496997;27;34656;-87
2022/03/11 06:25:53;;;;;;;20.00;9.90;;;;;;;-1.67;44.50;102189.66;6498072;27;33653;-87
2022/03/11 06:28:57;;;;;;;18.37;9.30;;;;;;;-1.77;44.09;102190.03;6497663;27;34165;-87
2022/03/11 06:32:00;;;;;;;17.92;10.32;;;;;;;-1.83;43.72;102185.81;6497759;27;34855;-87
2022/03/11 06:35:03;;;;;;;18.25;10.38;;;;;;;-1.83;44.10;102188.47;6497592;27;34598;-87
2022/03/11 06:38:06;;;;;;;18.25;10.60;;;;;;;-1.65;44.04;102185.16;6489393;27;200653;-88
2022/03/11 06:41:09;;;;;;;20.65;11.07;;;;;;;-1.45;43.78;102186.22;6495947;27;34166;-87
2022/03/11 06:44:12;;;;;;;19.92;12.07;;;;;;;-1.50;42.84;102185.53;6513055;27;34565;-87
2022/03/11 06:47:14;;;;;;;23.20;11.55;;;;;;;-1.27;43.31;102196.09;6514724;27;34618;-87
2022/03/11 06:50:19;;;;;;;16.95;9.77;;;;;;;-1.06;42.72;102202.38;6510514;27;34716;-88
2022/03/11 06:53:26;;;;;;;16.95;9.35;;;;;;;-1.12;41.92;102196.47;6500152;27;34676;-88
2022/03/11 06:56:29;;;;;;;17.52;9.43;;;;;;;-1.15;42.49;102195.66;6499790;27;33978;-87
2022/03/11 06:59:33;;;;;;;14.95;9.35;;;;;;;-1.12;42.19;102196.47;6501484;27;33767;-87
2022/03/11 07:02:37;;;;;;;13.50;9.40;;;;;;;-1.20;41.76;102200.25;6500733;27;34094;-87
2022/03/11 07:05:40;;;;;;;15.38;9.48;;;;;;;-1.09;41.22;102201.62;6502600;27;33897;-87
2022/03/11 07:13:01;;;;;;;15.88;9.20;;;;;;;-0.78;40.75;102203.97;6487572;27;20029;-89
2022/03/11 07:16:05;;;;;;;15.77;9.60;;;;;;;-0.79;40.51;102203.09;6472278;27;34552;-88
2022/03/11 07:19:13;;;;;;;12.67;8.30;;;;;;;-0.68;40.74;102206.16;6497513;27;33864;-87
2022/03/11 07:22:19;;;;;;;13.88;7.90;;;;;;;-0.76;39.79;102203.00;6501137;27;34030;-87
2022/03/11 07:25:30;;;;;;;16.98;9.13;;;;;;;-0.34;39.60;102214.56;6498087;27;35441;-87
2022/03/11 07:28:33;;;;;;;13.32;8.75;;;;;;;-0.69;39.05;102207.09;6497298;27;34240;-86
2022/03/11 07:31:35;;;;;;;13.88;9.02;;;;;;;-0.92;39.72;102204.50;6498945;27;33949;-87
2022/03/11 07:34:39;;;;;;;16.87;8.75;;;;;;;-0.67;39.63;102212.34;6504572;27;34369;-87
2022/03/11 07:37:42;;;;;;;13.95;8.85;;;;;;;-0.66;39.75;102207.91;6498633;27;34577;-88
2022/03/11 07:40:45;;;;;;;15.38;9.32;;;;;;;-0.53;39.59;102204.69;6497574;27;33726;-87
2022/03/11 07:43:47;;;;;;;14.30;8.45;;;;;;;-0.14;39.14;102204.00;6496401;27;34246;-87
2022/03/11 07:47:10;;;;;;;15.10;9.20;;;;;;;0.09;38.30;102210.09;6498437;27;34126;-87
2022/03/11 07:50:14;;;;;;;14.32;9.02;;;;;;;0.34;38.21;102202.84;6499095;27;34362;-87
2022/03/11 07:53:17;;;;;;;13.55;7.93;;;;;;;0.38;37.55;102206.19;6499465;27;34244;-87
2022/03/11 07:56:19;;;;;;;15.70;8.38;;;;;;;0.27;37.05;102200.53;6500545;27;33809;-87
2022/03/11 07:59:23;;;;;;;14.95;7.80;;;;;;;0.28;37.62;102196.94;6509976;27;34342;-87
2022/03/11 08:02:27;;;;;;;11.23;7.03;;;;;;;0.49;36.19;102201.28;6484091;27;33701;-87
2022/03/11 08:05:31;;;;;;;11.85;6.70;;;;;;;0.41;36.00;102211.38;6497360;27;34107;-87
2022/03/11 08:08:35;;;;;;;11.00;7.10;;;;;;;0.47;35.16;102211.12;6498789;27;34197;-87
2022/03/11 08:11:38;;;;;;;14.55;7.90;;;;;;;0.43;35.71;102205.06;6479109;27;33815;-87
2022/03/11 08:14:41;;;;;;;10.75;7.40;;;;;;;0.59;36.01;102207.94;6479561;27;32950;-87
2022/03/11 08:17:46;;;;;;;13.75;7.85;;;;;;;0.75;35.24;102197.47;6497999;27;34363;-88
2022/03/11 08:20:49;;;;;;;12.82;7.07;;;;;;;0.68;35.54;102196.91;6498125;27;33645;-87
2022/03/11 08:23:52;;;;;;;13.02;7.07;;;;;;;0.59;35.50;102189.37;6515329;27;33690;-87
2022/03/11 08:26:55;;;;;;;13.60;7.20;;;;;;;0.82;34.81;102192.75;6508566;27;35113;-87
2022/03/11 08:29:58;;;;;;;9.20;6.62;;;;;;;1.06;34.06;102182.81;6505702;27;32543;-87
2022/03/11 08:33:14;;;;;;;9.25;6.65;;;;;;;1.26;33.78;102185.41;6497563;27;36373;-89
2022/03/11 08:36:38;;;;;;;10.02;6.75;;;;;;;1.33;33.41;102186.81;6499251;27;33925;-88
2022/03/11 08:39:43;;;;;;;14.85;7.62;;;;;;;1.37;33.55;102176.91;6499629;27;34572;-88
2022/03/11 08:42:46;;;;;;;12.10;7.18;;;;;;;1.43;33.33;102178.41;6496504;27;34269;-87
2022/03/11 08:45:49;;;;;;;11.00;6.53;;;;;;;1.67;32.99;102178.97;6497477;27;33860;-87
2022/03/11 08:48:52;;;;;;;10.88;7.00;;;;;;;1.53;33.19;102179.69;6498883;27;34563;-87
2022/03/11 08:51:56;;;;;;;12.18;7.35;;;;;;;1.57;32.94;102173.28;6499839;27;33919;-87
2022/03/11 08:59:05;;;;;;;10.75;6.30;;;;;;;1.43;33.63;102168.63;6498306;27;20085;-87
2022/03/11 09:02:08;;;;;;;10.10;6.57;;;;;;;1.79;32.23;102152.69;6496706;27;34002;-87
2022/03/11 09:05:15;;;;;;;9.20;5.97;;;;;;;1.54;32.62;102168.97;6498734;27;34126;-88
2022/03/11 09:08:18;;;;;;;11.18;6.10;;;;;;;1.55;32.25;102157.44;6499565;27;33710;-86
2022/03/11 09:11:21;;;;;;;12.07;6.43;;;;;;;1.38;32.24;102152.09;6497424;27;34810;-87
2022/03/11 09:14:25;;;;;;;12.23;6.45;;;;;;;1.27;32.55;102151.75;6497949;27;33851;-87
2022/03/11 09:17:27;;;;;;;11.25;6.32;;;;;;;1.51;32.35;102147.88;6498796;27;34287;-87
2022/03/11 09:20:30;;;;;;;10.52;6.50;;;;;;;1.81;31.91;102137.56;6497244;27;34031;-87
2022/03/11 09:23:39;;;;;;;10.23;6.80;;;;;;;1.75;32.02;102132.53;6497579;27;33883;-87
2022/03/11 09:26:48;;;;;;;10.48;6.70;;;;;;;1.89;31.89;102133.62;6496509;27;33758;-88
2022/03/11 09:29:56;;;;;;;10.80;6.45;;;;;;;1.68;31.88;102132.94;6499046;27;35439;-92
2022/03/11 09:33:22;;;;;;;8.95;6.28;;;;;;;2.06;31.66;102136.28;6496864;27;34317;31
2022/03/11 09:36:44;;;;;;;10.98;6.85;;;;;;;2.25;31.11;102126.41;6420238;27;34378;-89
2022/03/11 09:43:48;;;;;;;12.05;5.07;;;;;;;2.35;30.47;102126.78;6503064;27;20069;-88
2022/03/11 09:46:52;;;;;;;8.52;5.15;;;;;;;2.29;31.32;102120.94;6504281;27;34613;-88
2022/03/11 09:49:55;;;;;;;12.55;5.05;;;;;;;2.25;31.86;102115.78;6503953;27;34981;-90
2022/03/11 09:52:59;;;;;;;11.82;5.70;;;;;;;2.33;31.54;102117.16;6502619;27;33948;-89
2022/03/11 09:56:02;;;;;;;10.93;5.18;;;;;;;2.37;31.31;102116.06;6514189;27;33956;-88
2022/03/11 09:59:07;;;;;;;7.47;5.30;;;;;;;2.66;31.07;102117.13;6503423;27;34814;-88
2022/03/11 10:02:14;;;;;;;8.32;5.03;;;;;;;2.71;31.88;102102.66;6502796;27;34432;-88
2022/03/11 10:05:18;;;;;;;7.20;4.43;;;;;;;3.16;31.06;102109.00;6506343;27;35266;-87
2022/03/11 10:08:34;;;;;;;9.90;5.22;;;;;;;3.43;30.03;102112.84;6502088;27;33775;-86
2022/03/11 10:11:37;;;;;;;7.93;4.70;;;;;;;3.06;30.00;102106.94;6501504;27;33859;-86
2022/03/11 10:14:44;;;;;;;8.52;4.85;;;;;;;3.12;30.48;102102.13;6502549;27;35457;-91
2022/03/11 10:17:47;;;;;;;8.68;4.78;;;;;;;3.34;29.34;102111.56;6501182;27;34691;-91
2022/03/11 10:20:50;;;;;;;7.87;4.78;;;;;;;3.23;29.37;102104.19;6502034;27;34354;-91
2022/03/11 10:23:54;;;;;;;8.32;4.40;;;;;;;3.56;29.32;102104.03;6501948;27;34296;-87
2022/03/11 10:26:58;;;;;;;7.28;4.75;;;;;;;3.86;29.35;102100.50;6500725;27;33754;-87
2022/03/11 10:30:15;;;;;;;9.35;4.45;;;;;;;3.43;28.64;102099.53;6501364;27;34504;-87
2022/03/11 10:33:21;;;;;;;7.00;4.30;;;;;;;3.49;29.30;102096.50;6500588;27;34664;-86
2022/03/11 10:36:28;;;;;;;7.80;4.47;;;;;;;3.72;28.50;102095.16;6499819;27;34147;-85
2022/03/11 10:39:40;;;;;;;6.47;4.18;;;;;;;3.86;26.99;102090.72;6499781;27;33963;-85
2022/03/11 10:42:44;;;;;;;7.12;4.22;;;;;;;4.01;27.30;102090.75;6500600;27;34165;-86
2022/03/11 10:46:06;;;;;;;6.85;4.20;;;;;;;4.26;27.04;102093.59;6500053;27;34111;-86
2022/03/11 10:49:11;;;;;;;12.30;4.80;;;;;;;4.18;26.39;102082.53;6499088;27;34141;-85
2022/03/11 10:52:29;;;;;;;7.78;4.72;;;;;;;4.50;27.22;102072.56;6501100;27;34167;-86
2022/03/11 10:55:33;;;;;;;11.65;4.72;;;;;;;4.46;26.65;102067.50;6501832;27;34049;-85
2022/03/11 10:58:38;;;;;;;5.43;4.28;;;;;;;4.43;25.94;102073.03;6511847;27;34851;-86
2022/03/11 11:01:44;;;;;;;8.30;4.85;;;;;;;4.73;26.25;102067.56;6518177;27;35345;-86
2022/03/11 11:04:47;;;;;;;8.68;4.72;;;;;;;4.83;25.16;102059.84;6518061;27;35370;-86
2022/03/11 11:07:51;;;;;;;8.75;4.57;;;;;;;4.91;26.21;102061.03;6511589;27;35500;-86
2022/03/11 11:10:55;;;;;;;10.73;5.10;;;;;;;5.28;25.85;102039.06;6505647;27;34560;-86
2022/03/11 11:13:59;;;;;;;8.07;5.07;;;;;;;5.74;24.65;102038.62;6514605;27;34796;-86
2022/03/11 11:17:04;;;;;;;8.18;4.60;;;;;;;5.29;25.82;102036.28;6516689;27;33656;-86
2022/03/11 11:20:21;;;;;;;10.43;5.05;;;;;;;5.14;24.50;102037.31;6507734;27;35383;-85
2022/03/11 11:23:26;;;;;;;5.20;4.07;;;;;;;5.94;24.45;102038.16;6515949;27;34090;-86
2022/03/11 11:26:31;;;;;;;7.82;4.90;;;;;;;6.17;23.59;102031.16;6517922;27;35375;-89
2022/03/11 11:29:36;;;;;;;6.90;4.68;;;;;;;6.43;23.68;102025.78;6510319;27;35481;-91
2022/03/11 11:32:41;;;;;;;8.38;4.95;;;;;;;6.97;24.63;102020.88;6499612;27;33680;-87
2022/03/11 11:35:44;;;;;;;6.70;4.70;;;;;;;7.06;22.51;102016.69;6499613;27;34114;-86
2022/03/11 11:38:47;;;;;;;6.97;4.50;;;;;;;7.73;22.38;102011.53;6501231;27;34239;-87
2022/03/11 11:41:53;;;;;;;8.85;5.57;;;;;;;8.24;20.67;101998.63;6499839;27;33553;-88
2022/03/11 11:44:56;;;;;;;6.50;4.35;;;;;;;8.62;20.59;101992.87;6499554;27;34089;-86
2022/03/11 11:47:59;;;;;;;9.38;5.05;;;;;;;8.68;19.94;101989.69;6480029;27;35693;-88
2022/03/11 11:51:05;;;;;;;6.53;3.95;;;;;;;8.81;19.87;101987.72;6501217;27;34007;-87
2022/03/11 11:54:09;;;;;;;7.95;4.25;;;;;;;9.22;19.37;101983.41;6500302;27;34452;-87
2022/03/11 11:57:17;;;;;;;11.05;4.45;;;;;;;10.49;18.43;101976.00;6498507;27;34192;-85
2022/03/11 12:00:26;;;;;;;7.90;4.47;;;;;;;10.73;18.49;101970.22;6498969;27;34143;-88
2022/03/11 12:03:48;;;;;;;7.25;4.68;;;;;;;12.07;17.51;101962.13;6498212;27;35142;-88
2022/03/11 12:07:06;;;;;;;8.43;4.37;;;;;;;13.14;15.94;101956.88;6499728;27;33558;-85
2022/03/11 12:10:27;;;;;;;5.80;3.83;;;;;;;13.83;15.29;101957.91;6498619;27;34274;-85
2022/03/11 12:13:31;;;;;;;8.20;3.97;;;;;;;14.71;14.39;101954.91;6508650;27;34185;-85
2022/03/11 12:17:06;;;;;;;7.97;3.85;;;;;;;15.41;15.06;101942.72;6507421;27;35238;-86
2022/03/11 12:20:28;;;;;;;7.07;3.67;;;;;;;15.13;12.84;101950.38;6499553;27;34771;-85
2022/03/11 12:23:32;;;;;;;6.87;3.90;;;;;;;15.34;13.01;101947.12;6499496;27;34129;-85
2022/03/11 12:26:36;;;;;;;4.93;3.62;;;;;;;17.30;11.91;101951.69;6498108;27;34693;-86
2022/03/11 12:29:42;;;;;;;5.12;3.80;;;;;;;16.78;12.44;101931.53;6496931;27;34124;-84
2022/03/11 12:32:46;;;;;;;8.25;3.67;;;;;;;16.66;12.13;101940.25;6496808;27;33508;-84
2022/03/11 12:35:55;;;;;;;5.10;3.58;;;;;;;17.63;12.39;101935.03;6496935;27;33899;-84
2022/03/11 12:38:58;;;;;;;4.25;3.53;;;;;;;17.85;11.26;101925.16;6497964;27;33944;-84
2022/03/11 12:42:01;;;;;;;8.07;4.25;;;;;;;16.75;11.92;101920.97;6509236;27;34446;-84
2022/03/11 12:45:06;;;;;;;6.00;4.25;;;;;;;15.58;12.22;101924.53;6513833;27;34254;-84
2022/03/11 12:48:15;;;;;;;6.57;3.47;;;;;;;16.44;11.88;101925.59;6505810;27;35372;-84
2022/03/11 12:51:21;;;;;;;5.70;3.45;;;;;;;18.31;10.75;101913.97;6496090;27;35752;-84
2022/03/11 12:54:27;;;;;;;7.35;3.47;;;;;;;19.01;10.17;101913.31;6502663;27;34491;-85
2022/03/11 12:57:37;;;;;;;4.37;3.30;;;;;;;19.16;10.47;101909.62;6499015;27;34825;-86
2022/03/11 13:00:43;;;;;;;7.70;3.83;;;;;;;18.63;11.14;101906.38;6512612;27;34294;-86
2022/03/11 13:03:50;;;;;;;4.15;3.12;;;;;;;20.29;9.81;101892.06;6509280;27;33696;-86
2022/03/11 13:07:00;;;;;;;4.10;3.20;;;;;;;19.08;9.45;101894.25;6516917;27;35599;-86
2022/03/11 13:10:18;;;;;;;6.03;3.75;;;;;;;18.18;10.66;101898.31;6512475;27;34510;-86
2022/03/11 13:13:23;;;;;;;7.67;3.60;;;;;;;18.74;10.32;101897.72;6496383;27;33923;-86
2022/03/11 13:16:26;;;;;;;5.43;3.60;;;;;;;18.15;10.33;101895.13;6494872;27;34223;-87
2022/03/11 13:19:29;;;;;;;4.85;3.70;;;;;;;18.89;10.45;101884.84;6495691;27;33969;-86
2022/03/11 13:22:35;;;;;;;5.40;3.78;;;;;;;18.75;9.97;101889.34;6497988;27;34380;-86
2022/03/11 13:25:41;;;;;;;4.72;3.60;;;;;;;17.19;10.67;101884.09;6496325;27;35534;-86
2022/03/11 13:28:48;;;;;;;4.12;3.58;;;;;;;18.00;10.41;101876.91;6496909;27;35567;-87
2022/03/11 13:31:57;;;;;;;5.18;3.60;;;;;;;19.29;10.21;101870.69;6478947;27;34023;-86
2022/03/11 13:35:02;;;;;;;5.82;3.45;;;;;;;21.13;9.17;101868.84;6498874;27;33680;-92
2022/03/11 13:38:33;;;;;;;3.83;3.40;;;;;;;20.34;8.80;101869.56;6499204;27;33907;-88
2022/03/11 13:41:46;;;;;;;4.05;3.42;;;;;;;18.47;9.94;101858.38;6497325;27;33678;-86
2022/03/11 13:44:49;;;;;;;4.37;3.35;;;;;;;16.44;11.00;101854.91;6498608;27;34414;-86
2022/03/11 13:48:06;;;;;;;5.78;3.40;;;;;;;15.16;11.61;101869.47;6498274;27;34625;-85
2022/03/11 13:51:10;;;;;;;7.68;3.92;;;;;;;13.70;12.74;101861.91;6497874;27;34705;-85
2022/03/11 13:54:34;;;;;;;3.67;3.35;;;;;;;12.77;13.72;101869.69;6497688;27;34328;-86
2022/03/11 13:57:38;;;;;;;4.22;3.47;;;;;;;11.78;15.18;101865.91;6500720;27;34175;-86
2022/03/11 14:00:44;;;;;;;5.47;3.60;;;;;;;10.69;15.00;101866.47;6499986;27;33853;-85
2022/03/11 14:03:48;;;;;;;3.85;3.45;;;;;;;9.16;16.57;101862.16;6498335;27;34914;-85
2022/03/11 14:06:51;;;;;;;7.10;4.07;;;;;;;8.35;17.46;101862.62;6498658;27;34415;-84
2022/03/11 14:09:55;;;;;;;4.50;3.60;;;;;;;7.93;17.71;101853.59;6497974;27;33623;-85
2022/03/11 14:13:00;;;;;;;6.90;4.20;;;;;;;7.76;18.12;101852.25;6496226;27;33593;-85
2022/03/11 14:16:12;;;;;;;5.45;3.70;;;;;;;7.20;19.03;101861.13;6495546;27;33580;-85
2022/03/11 14:19:15;;;;;;;7.22;3.95;;;;;;;6.87;19.41;101859.22;6501996;27;33720;-86
2022/03/11 14:22:18;;;;;;;8.02;3.55;;;;;;;6.75;19.43;101855.66;6509466;27;33601;-84
2022/03/11 14:25:21;;;;;;;5.68;3.67;;;;;;;6.33;20.16;101862.44;6499265;27;33788;-86
2022/03/11 14:28:24;;;;;;;4.32;3.50;;;;;;;6.28;19.96;101849.38;6495276;27;34012;-89
2022/03/11 14:31:28;;;;;;;6.37;3.28;;;;;;;6.11;20.31;101847.97;6497804;27;33837;-89
2022/03/11 14:34:33;;;;;;;7.30;3.67;;;;;;;5.95;20.58;101838.50;6493350;27;33606;-88
2022/03/11 14:37:36;;;;;;;4.93;3.25;;;;;;;5.74;20.79;101839.06;6496943;27;34281;-88
2022/03/11 14:40:40;;;;;;;11.18;3.53;;;;;;;5.56;20.85;101840.41;6497169;27;34855;-87
2022/03/11 14:43:44;;;;;;;4.85;3.40;;;;;;;5.24;20.94;101835.50;6497359;27;35432;-88
2022/03/11 14:46:47;;;;;;;7.03;3.62;;;;;;;5.36;20.92;101831.13;6496441;27;35460;-90
2022/03/11 14:50:13;;;;;;;4.60;3.17;;;;;;;5.29;21.47;101828.00;6495707;27;34221;31
